Andacollo, Argentina
Current Conditions -  °F | °C
As of 4:00 PM on Friday 21 Nov 2014 (Local Time) from SCIC Reporting Station
Few Clouds Few Clouds  
Wind Chill: 81°   Ceiling: Unl
Heat Index: 81°   Visibility: 6mi
Dew Point: 45°   Wind: 6mph
Humidity: 28%   Direction: NA
Pressure: 29.97"   Gusts: NA
Location:  37.05°S, 70.07°W
Report Text: SCIC 211900Z VRB05KT 9999 FEW040 27/07 Q1015
Loading
Personal Weather Stations






























Interactive Weather Map New forecast layout! Learn more

10-Day Weather Forecast

Advertisements
Track Severe Weather on mobile